Time;durP1;ratioP1;P1;durP2;ratioP2;P2;SDS_P1;SDS_P2;PMS_P1;PMS_P2;Temp;Humidity;BMP_temperature;BMP_pressure;BME280_temperature;BME280_humidity;BME280_pressure;Samples;Min_cycle;Max_cycle;Signal;HPM_P1;HPM_P2
2024/04/13 00:01:25;;;;;;;11.77;5.13;;;19.80;83.30;;;;;;5345230;26;20012;-71
2024/04/13 00:03:51;;;;;;;12.23;5.97;;;19.70;83.30;;;;;;5344765;26;20011;-73
2024/04/13 00:06:18;;;;;;;9.60;5.07;;;19.70;83.50;;;;;;5347627;26;20096;-71
2024/04/13 00:08:44;;;;;;;9.48;5.10;;;19.60;83.70;;;;;;5348414;26;20526;-72
2024/04/13 00:11:09;;;;;;;8.88;5.18;;;19.60;83.60;;;;;;5348695;26;20000;-72
2024/04/13 00:13:36;;;;;;;11.65;5.10;;;19.50;83.70;;;;;;5348788;26;20009;-72
2024/04/13 00:16:02;;;;;;;11.20;4.82;;;19.50;83.80;;;;;;5348444;26;20007;-73
2024/04/13 00:18:33;;;;;;;9.55;4.78;;;19.40;84.00;;;;;;5348655;26;19997;-72
2024/04/13 00:21:02;;;;;;;15.80;4.82;;;19.50;84.20;;;;;;5348545;26;20015;-72
2024/04/13 00:23:30;;;;;;;10.85;4.05;;;19.40;84.70;;;;;;5348269;26;20013;-71
2024/04/13 00:25:56;;;;;;;11.98;4.57;;;19.50;84.10;;;;;;5347745;26;20005;-71
2024/04/13 00:28:22;;;;;;;10.68;5.38;;;19.40;84.00;;;;;;5348503;26;20015;-71
2024/04/13 00:30:48;;;;;;;8.23;4.75;;;19.40;84.20;;;;;;5347935;26;20013;-73
2024/04/13 00:33:14;;;;;;;13.70;5.07;;;19.40;84.20;;;;;;5346728;26;20379;-71
2024/04/13 00:35:40;;;;;;;7.78;4.38;;;19.40;84.40;;;;;;5347123;26;20021;-72
2024/04/13 00:38:06;;;;;;;9.52;4.68;;;19.40;84.20;;;;;;5347969;26;20001;-71
2024/04/13 00:40:32;;;;;;;7.60;3.90;;;19.40;84.40;;;;;;5348934;26;20422;-71
2024/04/13 00:43:09;;;;;;;9.25;4.25;;;19.30;84.20;;;;;;5348635;26;20013;-71
2024/04/13 00:45:44;;;;;;;7.85;4.05;;;19.30;84.40;;;;;;5348724;26;20001;-71
2024/04/13 00:48:22;;;;;;;11.52;4.47;;;19.20;84.50;;;;;;5348388;26;20012;-71
2024/04/13 01:16:10;;;;;;;10.02;3.90;;;19.10;85.80;;;;;;5244610;27;20134;-70
2024/04/13 01:18:36;;;;;;;11.15;4.70;;;19.00;85.80;;;;;;5312200;26;20074;-71
2024/04/13 01:21:04;;;;;;;13.10;5.28;;;19.00;85.40;;;;;;5312712;26;20009;-71
2024/04/13 01:23:30;;;;;;;10.20;6.20;;;18.90;85.60;;;;;;5313661;26;20326;-72
2024/04/13 01:25:56;;;;;;;13.52;6.38;;;18.90;85.80;;;;;;5313781;26;20014;-72
2024/04/13 01:28:23;;;;;;;11.23;6.32;;;19.00;86.10;;;;;;5313007;26;20001;-71
2024/04/13 01:30:50;;;;;;;11.15;5.40;;;19.00;85.90;;;;;;5313230;26;20334;-73
2024/04/13 01:33:15;;;;;;;8.40;4.78;;;18.90;86.00;;;;;;5313220;26;20016;-72
2024/04/13 01:35:41;;;;;;;11.82;5.40;;;18.90;86.20;;;;;;5312802;27;20009;-72
2024/04/13 01:38:09;;;;;;;15.05;5.45;;;18.90;86.20;;;;;;5312827;26;20009;-72
2024/04/13 01:40:34;;;;;;;8.15;4.60;;;18.90;86.30;;;;;;5313005;26;20002;-71
2024/04/13 01:43:00;;;;;;;10.48;5.57;;;18.90;86.20;;;;;;5313266;27;20016;-72
2024/04/13 01:45:26;;;;;;;9.35;4.78;;;18.80;86.10;;;;;;5313073;26;20002;-72
2024/04/13 01:47:52;;;;;;;9.95;5.70;;;18.80;86.30;;;;;;5313025;26;20012;-72
2024/04/13 01:50:18;;;;;;;8.95;5.20;;;18.80;86.40;;;;;;5312914;26;20013;-72
2024/04/13 01:52:43;;;;;;;10.02;5.00;;;18.70;86.50;;;;;;5313046;26;20076;-72
2024/04/13 01:55:09;;;;;;;9.40;5.88;;;18.70;86.70;;;;;;5313150;26;20079;-72
2024/04/13 01:57:35;;;;;;;15.75;5.25;;;18.70;86.80;;;;;;5312888;26;20001;-72
2024/04/13 02:00:01;;;;;;;16.42;5.18;;;18.60;86.90;;;;;;5312665;26;20080;-77
2024/04/13 02:02:27;;;;;;;8.75;4.97;;;18.60;87.10;;;;;;5312515;26;20012;-76
2024/04/13 02:04:52;;;;;;;8.93;4.80;;;18.60;87.20;;;;;;5312629;26;20005;-77
2024/04/13 02:07:18;;;;;;;11.27;4.95;;;18.60;87.30;;;;;;5335517;26;20005;-77
2024/04/13 02:09:44;;;;;;;7.20;4.32;;;18.50;87.40;;;;;;5347205;26;20004;-76
2024/04/13 02:12:10;;;;;;;9.63;5.00;;;18.50;87.40;;;;;;5347183;26;20078;-77
2024/04/13 02:14:35;;;;;;;9.93;5.47;;;18.50;87.80;;;;;;5347195;26;20074;-77
2024/04/13 02:17:02;;;;;;;10.50;5.05;;;18.50;87.70;;;;;;5346986;26;20070;-76
2024/04/13 02:19:27;;;;;;;8.88;5.18;;;18.50;87.80;;;;;;5316707;26;20013;-71
2024/04/13 02:21:53;;;;;;;10.35;5.60;;;18.40;87.80;;;;;;5347678;26;20005;-71
2024/04/13 02:24:20;;;;;;;8.75;4.90;;;18.40;88.00;;;;;;5347262;26;20008;-72
2024/04/13 02:26:46;;;;;;;8.77;4.88;;;18.40;88.10;;;;;;5316769;26;20005;-72
2024/04/13 02:29:12;;;;;;;11.27;4.80;;;18.40;88.20;;;;;;5345464;26;20000;-72
2024/04/13 02:31:57;;;;;;;12.98;5.47;;;18.40;88.20;;;;;;5346863;26;20001;-71
2024/04/13 02:38:36;;;;;;;11.95;5.00;;;18.40;87.90;;;;;;5275702;27;20130;-72
2024/04/13 03:01:41;;;;;;;9.60;4.32;;;18.20;88.20;;;;;;5275237;27;20045;-71
2024/04/13 03:04:07;;;;;;;10.65;4.32;;;18.20;87.90;;;;;;5275061;27;20354;-71
2024/04/13 03:06:33;;;;;;;11.00;4.50;;;18.20;88.00;;;;;;5274617;27;20002;-72
2024/04/13 03:08:59;;;;;;;10.88;4.50;;;18.10;88.00;;;;;;5341231;26;20005;-72
2024/04/13 03:11:25;;;;;;;7.18;4.07;;;18.20;88.00;;;;;;5345934;26;20012;-71
2024/04/13 03:13:51;;;;;;;7.63;3.90;;;18.20;87.90;;;;;;5346202;26;20042;-72
2024/04/13 03:16:17;;;;;;;8.32;3.55;;;18.20;87.80;;;;;;5346155;26;20028;-71
2024/04/13 03:18:43;;;;;;;8.90;3.30;;;18.20;87.70;;;;;;5346004;26;20075;-73
2024/04/13 03:21:10;;;;;;;7.72;3.17;;;18.20;87.50;;;;;;5346053;26;20078;-72
2024/04/13 03:23:37;;;;;;;10.10;2.97;;;18.20;87.30;;;;;;5345837;26;20011;-72
2024/04/13 03:26:03;;;;;;;6.00;2.78;;;18.20;87.30;;;;;;5346203;26;20478;-71
2024/04/13 03:28:31;;;;;;;10.60;3.20;;;18.20;87.30;;;;;;5345959;26;20019;-72
2024/04/13 03:30:57;;;;;;;6.82;3.08;;;18.20;87.20;;;;;;5346126;26;19997;-72
2024/04/13 03:33:24;;;;;;;5.78;2.92;;;18.20;87.20;;;;;;5345867;26;20070;-72
2024/04/13 03:35:50;;;;;;;6.22;2.58;;;18.30;87.20;;;;;;5346376;26;20472;-72
2024/04/13 03:38:16;;;;;;;3.75;2.63;;;18.20;86.80;;;;;;5345770;26;20001;-71
2024/04/13 03:40:44;;;;;;;7.90;3.00;;;18.20;86.70;;;;;;5347803;26;20341;-73
2024/04/13 03:43:10;;;;;;;6.85;3.00;;;18.20;86.90;;;;;;5349470;26;20013;-72
2024/04/13 03:45:36;;;;;;;11.82;2.70;;;18.20;86.80;;;;;;5349108;26;20012;-72
2024/04/13 03:48:02;;;;;;;5.75;2.95;;;18.20;86.90;;;;;;5349247;26;19997;-72
2024/04/13 03:50:28;;;;;;;6.25;3.17;;;18.20;86.80;;;;;;5348478;26;20012;-71
2024/04/13 03:52:53;;;;;;;9.23;2.85;;;18.20;86.70;;;;;;5348618;26;20001;-71
2024/04/13 03:55:19;;;;;;;12.23;3.13;;;18.20;87.00;;;;;;5349039;26;19997;-72
2024/04/13 03:57:45;;;;;;;6.75;2.70;;;18.20;86.90;;;;;;5348813;26;20015;-71
2024/04/13 04:00:11;;;;;;;5.20;2.55;;;18.20;86.90;;;;;;5348723;26;20001;-71
2024/04/13 04:02:37;;;;;;;4.82;2.97;;;18.20;86.90;;;;;;5348666;26;20465;-71
2024/04/13 04:05:03;;;;;;;8.80;3.35;;;18.20;86.80;;;;;;5348844;26;20070;-71
2024/04/13 04:07:30;;;;;;;6.32;2.90;;;18.20;86.70;;;;;;5348941;26;20008;-71
2024/04/13 04:09:56;;;;;;;10.48;3.83;;;18.10;87.00;;;;;;5349481;26;20341;-71
2024/04/13 04:12:23;;;;;;;7.80;3.13;;;18.20;87.30;;;;;;5349471;26;20087;-72
2024/04/13 04:14:49;;;;;;;13.40;3.17;;;18.20;87.30;;;;;;5349168;26;19997;-71
2024/04/13 04:24:38;;;;;;;7.90;3.45;;;18.10;87.30;;;;;;5349314;26;20011;-71
2024/04/13 04:35:02;;;;;;;4.85;2.58;;;18.10;86.80;;;;;;5243287;27;20012;-71
2024/04/13 04:37:28;;;;;;;8.73;3.15;;;18.10;86.90;;;;;;5257981;26;19993;-71
2024/04/13 04:43:51;;;;;;;10.02;3.05;;;18.10;87.30;;;;;;5243387;27;20452;-71
2024/04/13 04:46:17;;;;;;;6.13;3.00;;;18.10;86.90;;;;;;5271458;26;20324;-72
2024/04/13 04:48:48;;;;;;;10.35;2.75;;;18.10;87.00;;;;;;5348319;26;20001;-71
2024/04/13 04:51:13;;;;;;;6.30;2.90;;;18.10;87.70;;;;;;5347148;26;20408;-71
2024/04/13 04:53:39;;;;;;;4.63;2.90;;;18.10;86.90;;;;;;5347831;26;20001;-71
2024/04/13 04:56:05;;;;;;;9.55;3.03;;;18.00;87.20;;;;;;5348274;26;19997;-71
2024/04/13 04:58:31;;;;;;;8.70;3.90;;;18.00;87.30;;;;;;5348159;26;20062;-72
2024/04/13 05:00:57;;;;;;;5.70;2.67;;;18.00;87.30;;;;;;5348198;26;20000;-71
2024/04/13 05:03:24;;;;;;;6.47;3.22;;;18.00;87.30;;;;;;5317660;26;20370;-72
2024/04/13 05:05:50;;;;;;;8.13;3.03;;;18.00;87.40;;;;;;5347510;26;20009;-72
2024/04/13 05:08:16;;;;;;;8.23;3.25;;;18.10;87.70;;;;;;5348436;26;19997;-71
2024/04/13 05:10:42;;;;;;;5.43;2.53;;;18.10;87.60;;;;;;5347930;26;19997;-73
2024/04/13 05:13:08;;;;;;;6.97;3.10;;;18.10;87.80;;;;;;5347895;26;20001;-72
2024/04/13 05:15:35;;;;;;;10.00;3.22;;;18.20;87.90;;;;;;5347916;26;20067;-71
2024/04/13 05:18:03;;;;;;;9.38;2.85;;;18.10;87.90;;;;;;5348085;26;20469;-72
2024/04/13 05:20:28;;;;;;;5.82;3.53;;;18.20;88.00;;;;;;5347793;26;19997;-73
2024/04/13 05:22:54;;;;;;;5.65;2.60;;;18.20;87.80;;;;;;5347685;26;20008;-72
2024/04/13 05:25:20;;;;;;;8.02;2.83;;;18.30;88.00;;;;;;5348095;26;20000;-77
2024/04/13 05:27:46;;;;;;;9.38;3.00;;;18.30;87.90;;;;;;5347894;26;20330;-77
2024/04/13 05:30:13;;;;;;;9.40;3.20;;;18.30;87.80;;;;;;5347950;26;20015;-76
2024/04/13 05:32:40;;;;;;;9.55;3.08;;;18.30;88.60;;;;;;5347822;26;19997;-77
2024/04/13 05:35:06;;;;;;;10.98;3.20;;;18.30;88.40;;;;;;5347389;26;20004;-77
2024/04/13 05:37:33;;;;;;;14.48;3.25;;;18.30;88.10;;;;;;5316702;26;20008;-77
2024/04/13 05:39:59;;;;;;;5.95;2.97;;;18.40;88.10;;;;;;5347473;26;19997;-76
2024/04/13 05:42:25;;;;;;;8.15;3.25;;;18.40;88.00;;;;;;5348180;26;20004;-77
2024/04/13 05:44:51;;;;;;;8.85;3.00;;;18.40;88.10;;;;;;5347812;26;20013;-77
2024/04/13 05:47:16;;;;;;;9.90;3.30;;;18.40;88.10;;;;;;5348207;26;20001;-72
2024/04/13 05:49:43;;;;;;;8.50;3.22;;;18.40;88.20;;;;;;5348165;26;19993;-72
2024/04/13 05:52:09;;;;;;;11.40;3.40;;;18.50;88.30;;;;;;5347670;26;20128;-71
2024/04/13 05:54:35;;;;;;;11.38;3.00;;;18.50;88.20;;;;;;5348222;26;20380;-72
2024/04/13 05:57:00;;;;;;;6.00;3.33;;;18.50;88.00;;;;;;5347886;26;20070;-72
2024/04/13 06:02:33;;;;;;;4.90;2.78;;;18.60;88.00;;;;;;5285389;21;19998;-71
2024/04/13 06:04:59;;;;;;;8.52;3.65;;;18.60;89.10;;;;;;5278332;27;20483;-71
2024/04/13 06:07:25;;;;;;;8.23;3.55;;;18.60;89.00;;;;;;5278309;27;20010;-72
2024/04/13 06:09:50;;;;;;;11.65;4.10;;;18.70;88.90;;;;;;5278016;27;20006;-72
2024/04/13 06:12:16;;;;;;;5.47;2.90;;;18.70;89.00;;;;;;5278344;27;20026;-72
2024/04/13 06:14:42;;;;;;;5.90;3.10;;;18.80;89.00;;;;;;5278469;27;20014;-72
2024/04/13 06:17:08;;;;;;;9.27;3.13;;;18.80;89.10;;;;;;5278302;27;19998;-75
2024/04/13 06:19:34;;;;;;;6.18;2.88;;;18.90;88.60;;;;;;5278644;27;19998;-77
2024/04/13 06:22:00;;;;;;;7.40;3.00;;;18.90;88.50;;;;;;5278606;27;19998;-76
2024/04/13 06:24:25;;;;;;;10.02;3.10;;;19.00;88.60;;;;;;5278014;27;20003;-77
2024/04/13 06:26:51;;;;;;;9.73;3.08;;;19.00;89.50;;;;;;5277892;27;20051;-76
2024/04/13 06:29:17;;;;;;;8.20;2.88;;;19.00;89.10;;;;;;5277870;27;20014;-75
2024/04/13 06:31:42;;;;;;;4.93;2.90;;;19.10;89.20;;;;;;5278205;27;20002;-77
2024/04/13 06:34:08;;;;;;;5.82;2.83;;;19.10;89.20;;;;;;5247180;27;20038;-76
2024/04/13 06:36:34;;;;;;;8.95;3.20;;;19.20;88.90;;;;;;5277391;27;20017;-76
2024/04/13 06:39:00;;;;;;;6.28;2.70;;;19.20;88.30;;;;;;5278247;27;20014;-71
2024/04/13 06:41:26;;;;;;;6.70;3.13;;;19.30;87.90;;;;;;5278425;27;20013;-70
2024/04/13 06:43:51;;;;;;;11.55;2.97;;;19.30;88.20;;;;;;5278133;27;20010;-71
2024/04/13 06:46:18;;;;;;;11.13;3.17;;;19.40;88.50;;;;;;5278157;27;20081;-73
2024/04/13 06:49:10;;;;;;;15.82;2.88;;;19.40;88.80;;;;;;5278381;27;20386;-71
2024/04/13 06:52:40;;;;;;;5.70;2.92;;;19.40;88.60;;;;;;5264704;27;20073;-71
2024/04/13 06:55:42;;;;;;;4.55;2.65;;;19.40;88.30;;;;;;5175032;27;20004;-71
2024/04/13 07:09:06;;;;;;;7.13;2.88;;;19.50;87.90;;;;;;5079998;28;20025;-71
2024/04/13 07:12:19;;;;;;;13.60;3.28;;;19.50;87.90;;;;;;5157116;27;20019;-71
2024/04/13 07:15:21;;;;;;;;;;;;;;;;;;;;;
2024/04/13 07:17:40;;;;;;;11.75;2.83;;;19.60;88.40;;;;;;5180408;27;20032;-71
2024/04/13 07:20:07;;;;;;;14.95;3.03;;;19.70;88.70;;;;;;5280913;27;20002;-71
2024/04/13 07:22:33;;;;;;;9.82;3.40;;;19.70;88.90;;;;;;5281082;27;20006;-71
2024/04/13 07:25:00;;;;;;;9.02;3.33;;;19.70;88.00;;;;;;5280780;27;20006;-71
2024/04/13 07:27:26;;;;;;;10.05;2.83;;;19.80;87.30;;;;;;5280545;27;20406;-71
2024/04/13 07:29:52;;;;;;;8.02;2.67;;;19.80;87.00;;;;;;5250428;27;20080;-71
2024/04/13 07:32:17;;;;;;;14.95;4.30;;;19.90;87.90;;;;;;5280580;27;20487;-71
2024/04/13 07:34:43;;;;;;;8.40;3.28;;;20.00;88.00;;;;;;5280334;27;20006;-72
2024/04/13 07:37:10;;;;;;;3.78;2.40;;;20.00;87.20;;;;;;5280260;27;20002;-71
2024/04/13 07:39:36;;;;;;;9.02;3.30;;;20.00;86.70;;;;;;5280357;27;20366;-72
2024/04/13 07:42:02;;;;;;;6.15;2.80;;;20.00;87.40;;;;;;5280163;27;20021;-70
2024/04/13 07:44:28;;;;;;;6.82;2.95;;;20.10;86.80;;;;;;5280679;27;20455;-72
2024/04/13 07:46:54;;;;;;;9.02;2.78;;;20.10;86.60;;;;;;5280694;27;20002;-71
2024/04/13 07:49:20;;;;;;;8.27;2.75;;;20.10;86.20;;;;;;5280575;27;20003;-72
2024/04/13 07:51:47;;;;;;;10.80;2.88;;;20.20;86.00;;;;;;5280825;27;20084;-72
2024/04/13 07:54:14;;;;;;;6.50;2.70;;;20.20;86.10;;;;;;5280663;27;20426;-72
2024/04/13 07:56:40;;;;;;;4.70;2.85;;;20.30;86.00;;;;;;5280744;27;20476;-72
2024/04/13 07:59:05;;;;;;;10.63;3.13;;;20.30;85.50;;;;;;5279960;27;20003;-71
2024/04/13 08:01:31;;;;;;;7.03;3.15;;;20.40;85.30;;;;;;5250189;27;19999;-72
2024/04/13 08:03:57;;;;;;;10.50;2.70;;;20.40;85.10;;;;;;5250603;27;20017;-72
2024/04/13 08:06:25;;;;;;;9.40;2.97;;;20.40;84.80;;;;;;5280285;27;20485;-71
2024/04/13 08:08:51;;;;;;;13.80;3.58;;;20.50;85.00;;;;;;5280086;27;20017;-72
2024/04/13 08:11:16;;;;;;;4.78;2.45;;;20.50;85.90;;;;;;5280006;27;20007;-71
2024/04/13 08:13:42;;;;;;;6.63;2.50;;;20.60;86.10;;;;;;5280541;27;20002;-72
2024/04/13 08:16:08;;;;;;;9.60;2.78;;;20.70;87.00;;;;;;5280013;27;20007;-71
2024/04/13 08:18:34;;;;;;;6.22;2.70;;;20.70;86.10;;;;;;5279869;27;20007;-71
2024/04/13 08:20:59;;;;;;;7.03;2.83;;;20.80;85.10;;;;;;5279917;27;20426;-71
2024/04/13 08:23:25;;;;;;;12.15;3.28;;;20.90;85.10;;;;;;5280016;27;20006;-71
2024/04/13 08:25:51;;;;;;;9.95;2.60;;;20.90;86.20;;;;;;5280468;27;20006;-72
2024/04/13 08:28:17;;;;;;;10.75;3.20;;;20.90;86.90;;;;;;5280567;27;20081;-71
2024/04/13 08:30:43;;;;;;;6.53;2.55;;;21.00;86.20;;;;;;5280305;27;20006;-71
2024/04/13 08:33:12;;;;;;;7.20;3.13;;;21.10;85.90;;;;;;5280270;27;20002;-72
2024/04/13 09:00:47;;;;;;;12.15;3.03;;;21.60;81.90;;;;;;4928097;29;20088;-71
2024/04/13 09:03:15;;;;;;;7.32;2.67;;;21.70;82.90;;;;;;4911993;29;20161;-72
2024/04/13 09:05:41;;;;;;;7.43;2.33;;;21.80;82.60;;;;;;4979616;28;20018;-71
2024/04/13 09:08:08;;;;;;;5.43;2.40;;;21.80;82.50;;;;;;5202578;27;20410;-71
2024/04/13 09:10:41;;;;;;;8.40;2.53;;;21.90;81.30;;;;;;5275319;27;20342;-72
2024/04/13 09:13:07;;;;;;;7.00;2.42;;;21.90;80.80;;;;;;5275216;27;20009;-71
2024/04/13 09:15:33;;;;;;;5.00;2.47;;;22.00;80.30;;;;;;5277491;27;20015;-71
2024/04/13 09:17:59;;;;;;;19.10;3.47;;;22.00;79.30;;;;;;5278800;27;20002;-72
2024/04/13 09:20:25;;;;;;;6.72;2.97;;;22.10;80.20;;;;;;5279028;27;20022;-72
2024/04/13 09:22:53;;;;;;;7.68;3.17;;;22.10;79.80;;;;;;5278762;27;20975;-71
2024/04/13 09:25:21;;;;;;;6.82;2.63;;;22.20;79.40;;;;;;5248682;27;20360;-71
2024/04/13 09:28:03;;;;;;;12.75;3.25;;;22.20;80.10;;;;;;5278888;27;19998;-71
2024/04/13 09:30:29;;;;;;;;;;;22.30;79.20;;;;;;5278720;27;20007;-72
2024/04/13 09:33:06;;;;;;;9.90;4.05;;;22.30;78.30;;;;;;5278342;27;20435;-72
2024/04/13 09:35:32;;;;;;;9.43;4.30;;;22.40;78.30;;;;;;5279028;27;20014;-71
2024/04/13 09:37:59;;;;;;;15.20;3.28;;;22.50;78.10;;;;;;5277959;27;20007;-71
2024/04/13 09:40:26;;;;;;;23.50;3.90;;;22.50;78.00;;;;;;5278552;27;20002;-72
2024/04/13 09:42:52;;;;;;;40.63;8.55;;;22.60;78.20;;;;;;5278223;27;20458;-71
2024/04/13 09:45:18;;;;;;;14.07;3.67;;;22.60;76.90;;;;;;5278230;27;20018;-71
2024/04/13 09:47:47;;;;;;;10.98;3.05;;;22.60;75.60;;;;;;5278740;27;20002;-71
2024/04/13 09:50:13;;;;;;;11.15;2.78;;;22.80;75.30;;;;;;5278944;27;19998;-72
2024/04/13 09:52:39;;;;;;;9.82;2.33;;;22.80;73.60;;;;;;5278477;27;20017;-74
2024/04/13 09:55:06;;;;;;;7.25;2.78;;;22.80;73.70;;;;;;5278899;27;20002;-73
2024/04/13 09:57:31;;;;;;;10.15;2.75;;;22.90;73.70;;;;;;5278851;27;20462;-72
2024/04/13 09:59:58;;;;;;;6.95;2.38;;;23.00;73.30;;;;;;5278781;27;20013;-72
2024/04/13 10:02:24;;;;;;;7.80;2.45;;;23.00;72.40;;;;;;5278641;27;20018;-72
2024/04/13 10:04:50;;;;;;;5.88;2.35;;;23.00;72.10;;;;;;5278479;27;20038;-72
2024/04/13 10:07:16;;;;;;;9.32;2.20;;;23.10;71.80;;;;;;5278509;27;20005;-71
2024/04/13 10:09:47;;;;;;;6.85;2.50;;;23.20;70.60;;;;;;5278524;27;20006;-72
2024/04/13 10:12:20;;;;;;;4.65;2.85;;;23.20;71.70;;;;;;5278915;27;20073;-71
2024/04/13 10:14:50;;;;;;;6.22;2.45;;;23.30;71.70;;;;;;5279258;27;20075;-71
2024/04/13 10:24:03;;;;;;;21.42;3.38;;;23.40;70.60;;;;;;5279111;27;20013;-71
2024/04/13 10:41:06;;;;;;;4.38;2.10;;;23.70;65.40;;;;;;5175091;27;20428;-72
2024/04/13 10:43:35;;;;;;;9.30;2.40;;;23.70;65.40;;;;;;5078609;28;20021;-72
2024/04/13 10:46:03;;;;;;;8.52;2.42;;;23.70;67.00;;;;;;5079401;28;20006;-71
2024/04/13 10:48:30;;;;;;;7.30;2.33;;;23.80;66.90;;;;;;5138731;27;20014;-71
2024/04/13 10:50:57;;;;;;;10.43;2.55;;;23.80;66.10;;;;;;5252864;27;20006;-72
2024/04/13 10:53:25;;;;;;;7.57;2.40;;;23.80;65.10;;;;;;5278054;27;19998;-73
2024/04/13 10:55:52;;;;;;;6.68;2.40;;;23.90;65.60;;;;;;5277562;27;20003;-72
2024/04/13 10:58:19;;;;;;;7.05;2.47;;;23.90;65.40;;;;;;5277948;27;20423;-72
2024/04/13 11:00:49;;;;;;;6.82;2.40;;;24.00;63.10;;;;;;5277166;27;19999;-71
2024/04/13 11:03:16;;;;;;;7.35;2.10;;;24.00;64.70;;;;;;5277332;27;20033;-71
2024/04/13 11:05:44;;;;;;;10.10;2.45;;;24.00;65.80;;;;;;5277715;27;20006;-71
2024/04/13 11:08:12;;;;;;;8.85;2.45;;;24.10;65.60;;;;;;5277347;27;20323;-72
2024/04/13 11:10:40;;;;;;;8.25;2.60;;;24.10;64.10;;;;;;5277666;27;20080;-72
2024/04/13 11:13:06;;;;;;;4.55;2.10;;;24.20;63.10;;;;;;5275934;27;20010;-72
2024/04/13 11:15:35;;;;;;;5.38;2.50;;;24.20;62.40;;;;;;5274171;27;20006;-71
2024/04/13 11:18:01;;;;;;;7.47;2.00;;;24.30;61.90;;;;;;5275022;27;20470;-72
2024/04/13 11:20:29;;;;;;;7.22;2.25;;;24.30;61.60;;;;;;5277250;27;20346;-72
2024/04/13 11:22:56;;;;;;;9.05;2.22;;;24.40;61.50;;;;;;5277357;27;20080;-71
2024/04/13 11:25:24;;;;;;;9.10;2.50;;;24.40;60.00;;;;;;5277496;27;20470;-72
2024/04/13 11:27:50;;;;;;;8.65;2.40;;;24.50;60.60;;;;;;5277545;27;20006;-72
2024/04/13 11:30:17;;;;;;;9.05;2.65;;;24.60;58.60;;;;;;5277283;27;20323;-72
2024/04/13 11:32:42;;;;;;;4.25;1.90;;;24.60;60.30;;;;;;5277460;27;20002;-71
2024/04/13 11:35:16;;;;;;;5.30;2.10;;;24.60;59.90;;;;;;5277276;27;20021;-71
2024/04/13 11:37:55;;;;;;;14.27;2.30;;;24.60;60.40;;;;;;5276262;27;20346;-72
2024/04/13 11:40:20;;;;;;;10.85;2.50;;;24.70;59.00;;;;;;5273671;27;20081;-71
2024/04/13 11:42:48;;;;;;;10.00;2.10;;;24.80;57.70;;;;;;5273182;27;20101;-72
2024/04/13 11:45:14;;;;;;;7.50;2.15;;;24.90;54.40;;;;;;5275466;27;20084;-71
2024/04/13 11:47:41;;;;;;;9.43;2.22;;;24.90;56.50;;;;;;5276629;27;20015;-70
2024/04/13 11:50:07;;;;;;;4.47;2.35;;;24.90;56.50;;;;;;5277064;27;20080;-71
2024/04/13 11:52:33;;;;;;;12.63;2.78;;;25.00;54.40;;;;;;5277160;27;20003;-71
2024/04/13 11:54:59;;;;;;;6.53;2.40;;;25.10;54.70;;;;;;5277569;27;20007;-71
2024/04/13 11:57:25;;;;;;;7.78;2.25;;;25.10;55.20;;;;;;5277109;27;20018;-71
2024/04/13 12:00:06;;;;;;;6.03;2.38;;;25.10;56.40;;;;;;5277379;27;20042;-71
2024/04/13 12:03:05;;;;;;;6.47;1.80;;;25.20;57.40;;;;;;5249717;27;20034;-71
2024/04/13 12:09:55;;;;;;;4.57;2.20;;;25.30;55.00;;;;;;5240075;27;19999;-73
2024/04/13 12:20:21;;;;;;;5.57;2.20;;;25.50;56.90;;;;;;4875560;29;20436;-72
2024/04/13 12:23:27;;;;;;;6.70;2.20;;;25.60;58.20;;;;;;4958757;28;20009;-71
2024/04/13 12:26:12;;;;;;;10.48;2.10;;;25.60;57.10;;;;;;4958406;28;20042;-72
2024/04/13 12:28:39;;;;;;;6.13;2.17;;;25.70;54.80;;;;;;4988916;28;20360;-71
2024/04/13 12:31:05;;;;;;;6.45;2.13;;;25.80;55.50;;;;;;5084807;27;20395;-72
2024/04/13 12:33:31;;;;;;;8.15;2.17;;;25.80;56.30;;;;;;5276287;27;20338;-71
2024/04/13 12:35:58;;;;;;;4.88;2.38;;;25.80;56.20;;;;;;5279446;27;20010;-72
2024/04/13 12:38:24;;;;;;;10.40;2.50;;;25.80;56.60;;;;;;5277853;27;20330;-72
2024/04/13 12:40:50;;;;;;;5.88;2.13;;;25.90;54.70;;;;;;5279569;27;20013;-71
2024/04/13 12:43:16;;;;;;;7.82;2.30;;;25.90;53.90;;;;;;5279698;27;20006;-71
2024/04/13 12:45:41;;;;;;;9.70;2.72;;;25.90;55.10;;;;;;5279572;27;20465;-71
2024/04/13 12:48:07;;;;;;;5.65;1.90;;;25.90;56.20;;;;;;5248815;27;19998;-71
2024/04/13 12:50:33;;;;;;;7.22;2.40;;;26.00;56.60;;;;;;5279324;27;20006;-71
2024/04/13 12:52:59;;;;;;;6.75;2.35;;;26.00;55.10;;;;;;5279204;27;20073;-71
2024/04/13 12:55:24;;;;;;;10.07;2.40;;;26.10;54.40;;;;;;5279600;27;19998;-71
2024/04/13 12:57:50;;;;;;;8.00;2.53;;;26.10;56.20;;;;;;5279096;27;20009;-71
2024/04/13 13:00:16;;;;;;;5.82;2.33;;;26.10;56.80;;;;;;5279081;27;20073;-72
2024/04/13 13:02:42;;;;;;;6.55;1.95;;;26.20;57.80;;;;;;5249492;27;20002;-71
2024/04/13 13:05:08;;;;;;;7.28;1.88;;;26.20;56.10;;;;;;5279054;27;20002;-72
2024/04/13 13:07:34;;;;;;;11.45;2.80;;;26.30;52.80;;;;;;5279438;27;20014;-72
2024/04/13 13:09:59;;;;;;;7.70;2.47;;;26.30;53.60;;;;;;5279332;27;20011;-76
2024/04/13 13:12:25;;;;;;;5.10;2.40;;;26.40;53.40;;;;;;5278385;27;20007;-76
2024/04/13 13:14:51;;;;;;;5.50;2.30;;;26.40;53.70;;;;;;5249171;27;20084;-74
2024/04/13 13:17:17;;;;;;;10.30;2.33;;;26.40;52.60;;;;;;5278618;27;20006;-73
2024/04/13 13:19:43;;;;;;;9.38;3.20;;;26.50;53.00;;;;;;5279371;27;20006;-74
2024/04/13 13:22:08;;;;;;;6.72;2.20;;;26.50;53.20;;;;;;5279430;27;20002;-76
2024/04/13 13:24:34;;;;;;;7.22;2.58;;;26.50;54.40;;;;;;5249681;27;20010;-77
2024/04/13 13:27:02;;;;;;;6.05;2.47;;;26.50;54.00;;;;;;5278885;27;20324;-75
2024/04/13 13:29:27;;;;;;;6.88;2.17;;;26.50;54.50;;;;;;5278876;27;20024;-77
2024/04/13 13:31:53;;;;;;;9.15;2.40;;;26.50;53.90;;;;;;5249793;27;20002;-71
2024/04/13 13:34:19;;;;;;;8.77;2.38;;;26.50;52.20;;;;;;5279497;27;20007;-72
2024/04/13 13:36:45;;;;;;;6.28;2.50;;;26.60;52.60;;;;;;5279805;27;20003;-71
2024/04/13 13:39:11;;;;;;;5.05;2.10;;;26.60;51.70;;;;;;5279470;27;20013;-72
2024/04/13 13:41:57;;;;;;;9.90;2.50;;;26.60;51.50;;;;;;5279145;27;20002;-71
2024/04/13 13:52:10;;;;;;;6.72;2.20;;;26.70;53.00;;;;;;5112088;28;20014;-72
2024/04/13 14:06:53;;;;;;;9.13;2.58;;;26.80;54.70;;;;;;4902409;29;20017;-71
2024/04/13 14:09:22;;;;;;;;;;;26.80;53.40;;;;;;4856093;29;20191;-71
2024/04/13 14:11:48;;;;;;;11.23;2.50;;;26.80;54.20;;;;;;4927284;29;19933;-72
2024/04/13 14:14:14;;;;;;;8.57;2.30;;;26.90;54.30;;;;;;5136524;27;21033;-71
2024/04/13 14:16:40;;;;;;;5.53;2.40;;;26.90;54.80;;;;;;5244877;27;20400;-72
2024/04/13 14:19:06;;;;;;;7.57;2.75;;;26.90;56.40;;;;;;5245108;27;19999;-73
2024/04/13 14:21:35;;;;;;;5.55;2.40;;;26.90;55.80;;;;;;5244613;27;20006;-73
2024/04/13 14:24:05;;;;;;;12.02;2.47;;;26.90;55.30;;;;;;5244358;27;20065;-71
2024/04/13 14:26:31;;;;;;;11.32;2.42;;;26.90;55.70;;;;;;5244678;27;20015;-72
2024/04/13 14:28:57;;;;;;;8.90;2.80;;;27.00;56.50;;;;;;5244767;27;20007;-72
2024/04/13 14:31:22;;;;;;;6.03;2.67;;;27.00;57.70;;;;;;5244568;27;20011;-72
2024/04/13 14:33:48;;;;;;;9.93;3.13;;;27.00;56.20;;;;;;5244423;27;20018;-72
2024/04/13 14:36:14;;;;;;;6.30;2.55;;;27.00;56.90;;;;;;5244276;27;20010;-71
2024/04/13 14:38:39;;;;;;;5.88;2.28;;;27.00;56.80;;;;;;5244326;27;20007;-72
2024/04/13 14:41:05;;;;;;;8.30;2.67;;;27.00;55.90;;;;;;5241641;27;20003;-72
2024/04/13 14:43:31;;;;;;;10.52;2.72;;;27.00;55.60;;;;;;5240893;27;20015;-71
2024/04/13 14:45:57;;;;;;;9.20;2.65;;;27.00;56.40;;;;;;5243300;27;20011;-72
2024/04/13 14:48:22;;;;;;;11.75;2.88;;;27.00;56.50;;;;;;5244184;27;20018;-72
2024/04/13 14:50:49;;;;;;;11.10;2.83;;;27.00;55.70;;;;;;5244595;27;20035;-72
2024/04/13 14:53:14;;;;;;;7.97;2.55;;;27.00;56.20;;;;;;5244287;27;20006;-72
2024/04/13 14:55:45;;;;;;;9.00;2.65;;;27.00;55.70;;;;;;5244141;27;20007;-72
2024/04/13 14:58:11;;;;;;;16.92;3.00;;;27.00;56.90;;;;;;5244687;27;20018;-72
2024/04/13 15:00:37;;;;;;;6.82;2.30;;;27.00;57.40;;;;;;5244332;27;20011;-71
2024/04/13 15:03:04;;;;;;;14.27;2.67;;;26.90;56.90;;;;;;5247975;27;20003;-71
2024/04/13 15:05:33;;;;;;;8.63;2.80;;;27.00;55.20;;;;;;5275676;27;20002;-72
2024/04/13 15:07:59;;;;;;;10.68;2.38;;;26.90;54.80;;;;;;5274111;27;20014;-72
2024/04/13 15:10:28;;;;;;;6.43;2.25;;;27.00;55.30;;;;;;5274148;27;20470;-72
2024/04/13 15:12:54;;;;;;;7.10;2.78;;;26.90;54.70;;;;;;5277154;27;20014;-71
2024/04/13 15:15:19;;;;;;;8.50;2.55;;;27.00;54.10;;;;;;5277216;27;20003;-72
2024/04/13 15:17:48;;;;;;;11.38;2.80;;;26.90;52.10;;;;;;5277935;27;20006;-72
2024/04/13 15:20:15;;;;;;;9.50;1.95;;;26.90;52.60;;;;;;5277552;27;20002;-72
2024/04/13 15:22:47;;;;;;;8.10;2.58;;;26.90;53.10;;;;;;5277813;27;20002;-71
2024/04/13 15:26:04;;;;;;;9.13;2.22;;;26.90;53.00;;;;;;5277437;27;20414;-71
2024/04/13 15:32:19;;;;;;;6.82;2.22;;;26.80;52.60;;;;;;5277834;27;20102;-72
2024/04/13 15:39:06;;;;;;;7.57;2.33;;;26.80;53.00;;;;;;5178437;27;20015;-72